sensor_id;sensor_type;location;lat;lon;timestamp;temperature;humidity
16513;DHT22;8369;48.030;11.598;2023-07-09T00:00:51;20.80;99.90
16513;DHT22;8369;48.030;11.598;2023-07-09T00:03:18;20.80;99.90
16513;DHT22;8369;48.030;11.598;2023-07-09T00:05:47;20.80;99.90
16513;DHT22;8369;48.030;11.598;2023-07-09T00:08:29;20.70;99.90
16513;DHT22;8369;48.030;11.598;2023-07-09T00:10:56;20.70;99.90
16513;DHT22;8369;48.030;11.598;2023-07-09T00:13:26;20.70;99.90
16513;DHT22;8369;48.030;11.598;2023-07-09T00:15:57;20.60;99.90
16513;DHT22;8369;48.030;11.598;2023-07-09T00:18:25;20.60;99.90
16513;DHT22;8369;48.030;11.598;2023-07-09T00:20:51;20.60;99.90
16513;DHT22;8369;48.030;11.598;2023-07-09T00:23:17;20.60;99.90
16513;DHT22;8369;48.030;11.598;2023-07-09T00:25:46;20.50;99.90
16513;DHT22;8369;48.030;11.598;2023-07-09T00:28:19;20.50;99.90
16513;DHT22;8369;48.030;11.598;2023-07-09T00:30:46;20.50;99.90
16513;DHT22;8369;48.030;11.598;2023-07-09T00:33:16;20.50;99.90
16513;DHT22;8369;48.030;11.598;2023-07-09T00:35:45;20.50;99.90
16513;DHT22;8369;48.030;11.598;2023-07-09T00:38:19;20.40;99.90
16513;DHT22;8369;48.030;11.598;2023-07-09T00:43:34;20.40;99.90
16513;DHT22;8369;48.030;11.598;2023-07-09T00:49:26;20.40;99.90
16513;DHT22;8369;48.030;11.598;2023-07-09T00:51:56;20.40;99.90
16513;DHT22;8369;48.030;11.598;2023-07-09T00:54:39;20.40;99.90
16513;DHT22;8369;48.030;11.598;2023-07-09T00:57:16;20.40;99.90
16513;DHT22;8369;48.030;11.598;2023-07-09T00:59:50;20.30;99.90
16513;DHT22;8369;48.030;11.598;2023-07-09T01:02:20;20.30;99.90
16513;DHT22;8369;48.030;11.598;2023-07-09T01:04:51;20.20;99.90
16513;DHT22;8369;48.030;11.598;2023-07-09T01:07:19;20.20;99.90
16513;DHT22;8369;48.030;11.598;2023-07-09T01:09:45;20.20;99.90
16513;DHT22;8369;48.030;11.598;2023-07-09T01:12:12;20.10;99.90
16513;DHT22;8369;48.030;11.598;2023-07-09T01:14:39;20.10;99.90
16513;DHT22;8369;48.030;11.598;2023-07-09T01:17:07;20.10;99.90
16513;DHT22;8369;48.030;11.598;2023-07-09T01:19:43;20.10;99.90
16513;DHT22;8369;48.030;11.598;2023-07-09T01:22:10;20.00;99.90
16513;DHT22;8369;48.030;11.598;2023-07-09T01:25:06;20.00;99.90
16513;DHT22;8369;48.030;11.598;2023-07-09T01:27:42;20.00;99.90
16513;DHT22;8369;48.030;11.598;2023-07-09T01:30:20;20.00;99.90
16513;DHT22;8369;48.030;11.598;2023-07-09T01:32:56;19.90;99.90
16513;DHT22;8369;48.030;11.598;2023-07-09T01:35:22;19.90;99.90
16513;DHT22;8369;48.030;11.598;2023-07-09T01:37:49;19.90;99.90
16513;DHT22;8369;48.030;11.598;2023-07-09T01:40:18;19.90;99.90
16513;DHT22;8369;48.030;11.598;2023-07-09T01:42:44;19.90;99.90
16513;DHT22;8369;48.030;11.598;2023-07-09T01:45:10;19.90;99.90
16513;DHT22;8369;48.030;11.598;2023-07-09T01:47:37;19.80;99.90
16513;DHT22;8369;48.030;11.598;2023-07-09T01:50:07;19.80;99.90
16513;DHT22;8369;48.030;11.598;2023-07-09T01:52:37;19.80;99.90
16513;DHT22;8369;48.030;11.598;2023-07-09T01:55:04;19.80;99.90
16513;DHT22;8369;48.030;11.598;2023-07-09T01:57:31;19.80;99.90
16513;DHT22;8369;48.030;11.598;2023-07-09T02:00:06;19.80;99.90
16513;DHT22;8369;48.030;11.598;2023-07-09T02:02:34;19.80;99.90
16513;DHT22;8369;48.030;11.598;2023-07-09T02:05:01;19.80;99.90
16513;DHT22;8369;48.030;11.598;2023-07-09T02:07:27;19.80;99.90
16513;DHT22;8369;48.030;11.598;2023-07-09T02:09:55;19.70;99.90
16513;DHT22;8369;48.030;11.598;2023-07-09T02:12:21;19.70;99.90
16513;DHT22;8369;48.030;11.598;2023-07-09T02:14:47;19.70;99.90
16513;DHT22;8369;48.030;11.598;2023-07-09T02:17:15;19.70;99.90
16513;DHT22;8369;48.030;11.598;2023-07-09T02:19:42;19.70;99.90
16513;DHT22;8369;48.030;11.598;2023-07-09T02:22:09;19.70;99.90
16513;DHT22;8369;48.030;11.598;2023-07-09T02:24:36;19.70;99.90
16513;DHT22;8369;48.030;11.598;2023-07-09T02:27:05;19.70;99.90
16513;DHT22;8369;48.030;11.598;2023-07-09T02:29:32;19.60;99.90
16513;DHT22;8369;48.030;11.598;2023-07-09T02:32:00;19.60;99.90
16513;DHT22;8369;48.030;11.598;2023-07-09T02:34:28;19.60;99.90
16513;DHT22;8369;48.030;11.598;2023-07-09T02:36:56;19.60;99.90
16513;DHT22;8369;48.030;11.598;2023-07-09T02:39:23;19.60;99.90
16513;DHT22;8369;48.030;11.598;2023-07-09T02:41:50;19.50;99.90
16513;DHT22;8369;48.030;11.598;2023-07-09T02:44:17;19.50;99.90
16513;DHT22;8369;48.030;11.598;2023-07-09T02:46:44;19.50;99.90
16513;DHT22;8369;48.030;11.598;2023-07-09T02:49:12;19.50;99.90
16513;DHT22;8369;48.030;11.598;2023-07-09T02:51:39;19.50;99.90
16513;DHT22;8369;48.030;11.598;2023-07-09T02:54:05;19.50;99.90
16513;DHT22;8369;48.030;11.598;2023-07-09T02:56:32;19.40;99.90
16513;DHT22;8369;48.030;11.598;2023-07-09T02:58:58;19.50;99.90
16513;DHT22;8369;48.030;11.598;2023-07-09T03:01:25;19.40;99.90
16513;DHT22;8369;48.030;11.598;2023-07-09T03:03:54;19.40;99.90
16513;DHT22;8369;48.030;11.598;2023-07-09T03:06:21;19.40;99.90
16513;DHT22;8369;48.030;11.598;2023-07-09T03:08:48;19.40;99.90
16513;DHT22;8369;48.030;11.598;2023-07-09T03:11:16;19.40;99.90
16513;DHT22;8369;48.030;11.598;2023-07-09T03:13:42;19.40;99.90
16513;DHT22;8369;48.030;11.598;2023-07-09T03:16:09;19.40;99.90
16513;DHT22;8369;48.030;11.598;2023-07-09T03:18:36;19.40;99.90
16513;DHT22;8369;48.030;11.598;2023-07-09T03:21:02;19.30;99.90
16513;DHT22;8369;48.030;11.598;2023-07-09T03:23:29;19.30;99.90
16513;DHT22;8369;48.030;11.598;2023-07-09T03:25:55;19.30;99.90
16513;DHT22;8369;48.030;11.598;2023-07-09T03:28:21;19.30;99.90
16513;DHT22;8369;48.030;11.598;2023-07-09T03:30:49;19.30;99.90
16513;DHT22;8369;48.030;11.598;2023-07-09T03:33:16;19.30;99.90
16513;DHT22;8369;48.030;11.598;2023-07-09T03:35:43;19.30;99.90
16513;DHT22;8369;48.030;11.598;2023-07-09T03:38:10;19.30;99.90
16513;DHT22;8369;48.030;11.598;2023-07-09T03:40:36;19.30;99.90
16513;DHT22;8369;48.030;11.598;2023-07-09T03:43:07;19.30;99.90
16513;DHT22;8369;48.030;11.598;2023-07-09T03:45:35;19.20;99.90
16513;DHT22;8369;48.030;11.598;2023-07-09T03:48:02;19.30;99.90
16513;DHT22;8369;48.030;11.598;2023-07-09T03:50:29;19.30;99.90
16513;DHT22;8369;48.030;11.598;2023-07-09T03:52:55;19.30;99.90
16513;DHT22;8369;48.030;11.598;2023-07-09T03:55:21;19.30;99.90
16513;DHT22;8369;48.030;11.598;2023-07-09T03:57:47;19.30;99.90
16513;DHT22;8369;48.030;11.598;2023-07-09T04:00:14;19.30;99.90
16513;DHT22;8369;48.030;11.598;2023-07-09T04:02:41;19.30;99.90
16513;DHT22;8369;48.030;11.598;2023-07-09T04:05:10;19.30;99.90
16513;DHT22;8369;48.030;11.598;2023-07-09T04:07:38;19.30;99.90
16513;DHT22;8369;48.030;11.598;2023-07-09T04:10:05;19.30;99.90
16513;DHT22;8369;48.030;11.598;2023-07-09T04:12:32;19.30;99.90
16513;DHT22;8369;48.030;11.598;2023-07-09T04:14:58;19.30;99.90
16513;DHT22;8369;48.030;11.598;2023-07-09T04:17:25;19.40;99.90
16513;DHT22;8369;48.030;11.598;2023-07-09T04:19:51;19.40;99.90
16513;DHT22;8369;48.030;11.598;2023-07-09T04:22:17;19.40;99.90
16513;DHT22;8369;48.030;11.598;2023-07-09T04:24:44;19.40;99.90
16513;DHT22;8369;48.030;11.598;2023-07-09T04:27:10;19.40;99.90
16513;DHT22;8369;48.030;11.598;2023-07-09T04:29:36;19.50;99.90
16513;DHT22;8369;48.030;11.598;2023-07-09T04:32:10;19.50;99.90
16513;DHT22;8369;48.030;11.598;2023-07-09T04:34:37;19.50;99.90
16513;DHT22;8369;48.030;11.598;2023-07-09T04:37:08;19.50;99.90
16513;DHT22;8369;48.030;11.598;2023-07-09T04:39:35;19.60;99.90
16513;DHT22;8369;48.030;11.598;2023-07-09T04:42:01;19.60;99.90
16513;DHT22;8369;48.030;11.598;2023-07-09T04:44:28;19.60;99.90
16513;DHT22;8369;48.030;11.598;2023-07-09T04:46:55;19.70;99.90
16513;DHT22;8369;48.030;11.598;2023-07-09T04:49:21;19.70;99.90
16513;DHT22;8369;48.030;11.598;2023-07-09T04:51:47;19.70;99.90
16513;DHT22;8369;48.030;11.598;2023-07-09T04:54:13;19.80;99.90
16513;DHT22;8369;48.030;11.598;2023-07-09T04:56:41;19.80;99.90
16513;DHT22;8369;48.030;11.598;2023-07-09T04:59:11;19.90;99.90
16513;DHT22;8369;48.030;11.598;2023-07-09T05:01:37;20.00;99.90
16513;DHT22;8369;48.030;11.598;2023-07-09T05:04:04;20.10;99.90
16513;DHT22;8369;48.030;11.598;2023-07-09T05:06:30;20.10;99.90
16513;DHT22;8369;48.030;11.598;2023-07-09T05:08:59;20.30;99.90
16513;DHT22;8369;48.030;11.598;2023-07-09T05:11:25;20.30;99.90
16513;DHT22;8369;48.030;11.598;2023-07-09T05:13:51;20.40;99.90
16513;DHT22;8369;48.030;11.598;2023-07-09T05:16:17;20.50;99.90
16513;DHT22;8369;48.030;11.598;2023-07-09T05:18:45;20.60;99.90
16513;DHT22;8369;48.030;11.598;2023-07-09T05:21:12;20.70;99.90
16513;DHT22;8369;48.030;11.598;2023-07-09T05:23:42;20.80;99.90
16513;DHT22;8369;48.030;11.598;2023-07-09T05:26:11;20.90;99.90
16513;DHT22;8369;48.030;11.598;2023-07-09T05:28:37;21.10;99.90
16513;DHT22;8369;48.030;11.598;2023-07-09T05:31:07;21.20;99.90
16513;DHT22;8369;48.030;11.598;2023-07-09T05:33:33;21.40;99.90
16513;DHT22;8369;48.030;11.598;2023-07-09T05:36:02;21.50;99.90
16513;DHT22;8369;48.030;11.598;2023-07-09T05:38:28;21.60;99.90
16513;DHT22;8369;48.030;11.598;2023-07-09T05:41:02;21.70;99.90
16513;DHT22;8369;48.030;11.598;2023-07-09T05:43:29;21.90;99.90
16513;DHT22;8369;48.030;11.598;2023-07-09T05:45:54;22.00;99.90
16513;DHT22;8369;48.030;11.598;2023-07-09T05:48:20;22.10;99.90
16513;DHT22;8369;48.030;11.598;2023-07-09T05:50:48;22.20;99.90
16513;DHT22;8369;48.030;11.598;2023-07-09T05:53:14;22.40;99.80
16513;DHT22;8369;48.030;11.598;2023-07-09T05:55:40;22.50;99.00
16513;DHT22;8369;48.030;11.598;2023-07-09T05:58:06;22.60;98.30
16513;DHT22;8369;48.030;11.598;2023-07-09T06:00:32;22.80;97.50
16513;DHT22;8369;48.030;11.598;2023-07-09T06:02:58;22.80;97.30
16513;DHT22;8369;48.030;11.598;2023-07-09T06:05:24;23.00;96.60
16513;DHT22;8369;48.030;11.598;2023-07-09T06:07:49;23.10;95.80
16513;DHT22;8369;48.030;11.598;2023-07-09T06:10:15;23.20;94.90
16513;DHT22;8369;48.030;11.598;2023-07-09T06:12:44;23.30;95.20
16513;DHT22;8369;48.030;11.598;2023-07-09T06:15:10;23.40;95.10
16513;DHT22;8369;48.030;11.598;2023-07-09T06:17:36;23.50;95.00
16513;DHT22;8369;48.030;11.598;2023-07-09T06:20:02;23.60;94.70
16513;DHT22;8369;48.030;11.598;2023-07-09T06:22:28;23.70;94.40
16513;DHT22;8369;48.030;11.598;2023-07-09T06:24:54;23.80;94.00
16513;DHT22;8369;48.030;11.598;2023-07-09T06:27:20;23.90;92.20
16513;DHT22;8369;48.030;11.598;2023-07-09T06:29:45;24.00;91.50
16513;DHT22;8369;48.030;11.598;2023-07-09T06:32:11;24.10;91.40
16513;DHT22;8369;48.030;11.598;2023-07-09T06:34:37;24.20;90.80
16513;DHT22;8369;48.030;11.598;2023-07-09T06:37:03;24.30;90.30
16513;DHT22;8369;48.030;11.598;2023-07-09T06:39:30;24.40;89.40
16513;DHT22;8369;48.030;11.598;2023-07-09T06:41:56;24.50;88.90
16513;DHT22;8369;48.030;11.598;2023-07-09T06:44:22;24.60;88.90
16513;DHT22;8369;48.030;11.598;2023-07-09T06:46:47;24.70;89.10
16513;DHT22;8369;48.030;11.598;2023-07-09T06:49:13;24.80;88.30
16513;DHT22;8369;48.030;11.598;2023-07-09T06:51:39;24.90;88.30
16513;DHT22;8369;48.030;11.598;2023-07-09T06:54:05;25.00;87.90
16513;DHT22;8369;48.030;11.598;2023-07-09T06:56:32;25.10;87.40
16513;DHT22;8369;48.030;11.598;2023-07-09T06:58:57;25.20;86.80
16513;DHT22;8369;48.030;11.598;2023-07-09T07:01:23;25.30;86.60
16513;DHT22;8369;48.030;11.598;2023-07-09T07:03:49;25.40;84.40
16513;DHT22;8369;48.030;11.598;2023-07-09T07:06:14;25.50;81.60
16513;DHT22;8369;48.030;11.598;2023-07-09T07:08:42;25.60;81.10
16513;DHT22;8369;48.030;11.598;2023-07-09T07:11:07;25.60;81.90
16513;DHT22;8369;48.030;11.598;2023-07-09T07:13:38;25.70;81.00
16513;DHT22;8369;48.030;11.598;2023-07-09T07:16:13;25.80;80.60
16513;DHT22;8369;48.030;11.598;2023-07-09T07:18:39;25.90;77.60
16513;DHT22;8369;48.030;11.598;2023-07-09T07:21:05;26.00;76.20
16513;DHT22;8369;48.030;11.598;2023-07-09T07:23:31;26.00;77.10
16513;DHT22;8369;48.030;11.598;2023-07-09T07:25:57;26.10;76.70
16513;DHT22;8369;48.030;11.598;2023-07-09T07:28:23;26.10;77.10
16513;DHT22;8369;48.030;11.598;2023-07-09T07:31:03;26.20;76.70
16513;DHT22;8369;48.030;11.598;2023-07-09T07:33:30;26.30;75.00
16513;DHT22;8369;48.030;11.598;2023-07-09T07:35:55;26.40;75.00
16513;DHT22;8369;48.030;11.598;2023-07-09T07:38:22;26.40;74.30
16513;DHT22;8369;48.030;11.598;2023-07-09T07:40:50;26.50;74.30
16513;DHT22;8369;48.030;11.598;2023-07-09T07:43:15;26.60;75.30
16513;DHT22;8369;48.030;11.598;2023-07-09T07:45:42;26.70;74.70
16513;DHT22;8369;48.030;11.598;2023-07-09T07:48:07;26.70;75.20
16513;DHT22;8369;48.030;11.598;2023-07-09T07:50:33;26.80;75.30
16513;DHT22;8369;48.030;11.598;2023-07-09T07:52:59;26.90;75.50
16513;DHT22;8369;48.030;11.598;2023-07-09T07:55:25;27.00;75.60
16513;DHT22;8369;48.030;11.598;2023-07-09T07:57:50;27.10;75.30
16513;DHT22;8369;48.030;11.598;2023-07-09T08:00:16;27.20;74.90
16513;DHT22;8369;48.030;11.598;2023-07-09T08:02:42;27.30;74.70
16513;DHT22;8369;48.030;11.598;2023-07-09T08:05:08;27.40;74.40
16513;DHT22;8369;48.030;11.598;2023-07-09T08:07:34;27.50;73.60
16513;DHT22;8369;48.030;11.598;2023-07-09T08:10:00;27.60;73.20
16513;DHT22;8369;48.030;11.598;2023-07-09T08:12:25;27.70;72.00
16513;DHT22;8369;48.030;11.598;2023-07-09T08:14:51;27.70;71.10
16513;DHT22;8369;48.030;11.598;2023-07-09T08:17:17;27.80;70.60
16513;DHT22;8369;48.030;11.598;2023-07-09T08:19:51;27.90;69.50
16513;DHT22;8369;48.030;11.598;2023-07-09T08:22:18;27.90;69.20
16513;DHT22;8369;48.030;11.598;2023-07-09T08:24:46;27.90;67.40
16513;DHT22;8369;48.030;11.598;2023-07-09T08:27:12;27.90;67.70
16513;DHT22;8369;48.030;11.598;2023-07-09T08:29:38;28.00;67.90
16513;DHT22;8369;48.030;11.598;2023-07-09T08:32:05;28.00;68.50
16513;DHT22;8369;48.030;11.598;2023-07-09T08:34:31;28.10;68.80
16513;DHT22;8369;48.030;11.598;2023-07-09T08:36:57;28.20;67.20
16513;DHT22;8369;48.030;11.598;2023-07-09T08:39:23;28.20;64.40
16513;DHT22;8369;48.030;11.598;2023-07-09T08:49:54;28.40;64.50
16513;DHT22;8369;48.030;11.598;2023-07-09T08:52:36;28.50;65.10
16513;DHT22;8369;48.030;11.598;2023-07-09T08:55:07;28.60;64.80
16513;DHT22;8369;48.030;11.598;2023-07-09T08:57:58;28.70;64.00
16513;DHT22;8369;48.030;11.598;2023-07-09T09:00:35;28.80;64.00
16513;DHT22;8369;48.030;11.598;2023-07-09T09:03:40;28.90;63.90
16513;DHT22;8369;48.030;11.598;2023-07-09T09:06:22;28.90;61.60
16513;DHT22;8369;48.030;11.598;2023-07-09T09:12:21;29.10;62.50
16513;DHT22;8369;48.030;11.598;2023-07-09T09:15:01;29.10;61.90
16513;DHT22;8369;48.030;11.598;2023-07-09T09:17:34;29.20;62.40
16513;DHT22;8369;48.030;11.598;2023-07-09T09:20:06;29.20;62.70
16513;DHT22;8369;48.030;11.598;2023-07-09T09:22:49;29.30;62.50
16513;DHT22;8369;48.030;11.598;2023-07-09T09:27:42;29.50;60.40
16513;DHT22;8369;48.030;11.598;2023-07-09T09:30:20;29.60;60.50
16513;DHT22;8369;48.030;11.598;2023-07-09T09:32:54;29.70;60.70
16513;DHT22;8369;48.030;11.598;2023-07-09T09:35:27;29.70;58.80
16513;DHT22;8369;48.030;11.598;2023-07-09T09:37:55;29.70;58.90
16513;DHT22;8369;48.030;11.598;2023-07-09T09:40:22;29.80;59.20
16513;DHT22;8369;48.030;11.598;2023-07-09T09:42:50;29.80;59.90
16513;DHT22;8369;48.030;11.598;2023-07-09T09:45:18;29.90;59.80
16513;DHT22;8369;48.030;11.598;2023-07-09T09:47:45;30.00;58.40
16513;DHT22;8369;48.030;11.598;2023-07-09T09:50:19;30.00;58.80
16513;DHT22;8369;48.030;11.598;2023-07-09T09:52:46;30.10;58.10
16513;DHT22;8369;48.030;11.598;2023-07-09T09:55:19;30.20;58.10
16513;DHT22;8369;48.030;11.598;2023-07-09T09:58:11;30.20;58.20
16513;DHT22;8369;48.030;11.598;2023-07-09T10:00:38;30.30;57.10
16513;DHT22;8369;48.030;11.598;2023-07-09T10:03:04;30.30;57.50
16513;DHT22;8369;48.030;11.598;2023-07-09T10:05:44;30.40;58.10
16513;DHT22;8369;48.030;11.598;2023-07-09T10:08:32;30.50;57.90
16513;DHT22;8369;48.030;11.598;2023-07-09T10:11:14;30.60;58.10
16513;DHT22;8369;48.030;11.598;2023-07-09T10:13:44;30.70;58.10
16513;DHT22;8369;48.030;11.598;2023-07-09T10:19:14;30.80;57.90
16513;DHT22;8369;48.030;11.598;2023-07-09T10:21:47;30.90;57.90
16513;DHT22;8369;48.030;11.598;2023-07-09T10:32:39;31.10;56.40
16513;DHT22;8369;48.030;11.598;2023-07-09T10:35:22;31.20;54.00
16513;DHT22;8369;48.030;11.598;2023-07-09T10:40:55;31.30;55.20
16513;DHT22;8369;48.030;11.598;2023-07-09T10:43:45;31.40;55.00
16513;DHT22;8369;48.030;11.598;2023-07-09T10:46:22;31.40;54.50
16513;DHT22;8369;48.030;11.598;2023-07-09T10:48:51;31.50;55.10
16513;DHT22;8369;48.030;11.598;2023-07-09T10:51:26;31.50;55.40
16513;DHT22;8369;48.030;11.598;2023-07-09T10:54:21;31.60;55.10
16513;DHT22;8369;48.030;11.598;2023-07-09T10:56:56;31.70;54.00
16513;DHT22;8369;48.030;11.598;2023-07-09T11:01:57;31.80;53.40
16513;DHT22;8369;48.030;11.598;2023-07-09T11:04:35;31.90;53.80
16513;DHT22;8369;48.030;11.598;2023-07-09T11:07:07;31.90;53.30
16513;DHT22;8369;48.030;11.598;2023-07-09T11:10:42;31.90;52.50
16513;DHT22;8369;48.030;11.598;2023-07-09T11:13:48;31.90;53.00
16513;DHT22;8369;48.030;11.598;2023-07-09T11:16:25;32.00;53.10
16513;DHT22;8369;48.030;11.598;2023-07-09T11:19:00;32.10;54.20
16513;DHT22;8369;48.030;11.598;2023-07-09T11:30:51;32.30;51.70
16513;DHT22;8369;48.030;11.598;2023-07-09T11:33:27;32.20;51.80
16513;DHT22;8369;48.030;11.598;2023-07-09T11:36:12;32.30;51.80
16513;DHT22;8369;48.030;11.598;2023-07-09T11:38:46;32.30;51.50
16513;DHT22;8369;48.030;11.598;2023-07-09T11:44:27;32.30;49.60
16513;DHT22;8369;48.030;11.598;2023-07-09T11:50:29;32.30;50.00
16513;DHT22;8369;48.030;11.598;2023-07-09T11:53:02;32.40;50.30
16513;DHT22;8369;48.030;11.598;2023-07-09T11:58:01;32.60;51.40
16513;DHT22;8369;48.030;11.598;2023-07-09T12:00:30;32.60;51.40
16513;DHT22;8369;48.030;11.598;2023-07-09T12:03:35;32.70;50.80
16513;DHT22;8369;48.030;11.598;2023-07-09T12:06:03;32.70;49.80
16513;DHT22;8369;48.030;11.598;2023-07-09T12:08:36;32.70;51.10
16513;DHT22;8369;48.030;11.598;2023-07-09T12:11:02;32.80;52.00
16513;DHT22;8369;48.030;11.598;2023-07-09T12:13:28;32.80;50.80
16513;DHT22;8369;48.030;11.598;2023-07-09T12:15:53;32.90;50.70
16513;DHT22;8369;48.030;11.598;2023-07-09T12:18:19;32.90;51.00
16513;DHT22;8369;48.030;11.598;2023-07-09T12:20:49;33.00;51.00
16513;DHT22;8369;48.030;11.598;2023-07-09T12:23:25;33.00;51.00
16513;DHT22;8369;48.030;11.598;2023-07-09T12:25:55;33.00;50.70
16513;DHT22;8369;48.030;11.598;2023-07-09T12:28:22;33.00;51.50
16513;DHT22;8369;48.030;11.598;2023-07-09T12:30:49;33.00;50.60
16513;DHT22;8369;48.030;11.598;2023-07-09T12:33:22;33.10;49.60
16513;DHT22;8369;48.030;11.598;2023-07-09T12:39:04;33.10;49.60
16513;DHT22;8369;48.030;11.598;2023-07-09T12:41:41;33.00;49.60
16513;DHT22;8369;48.030;11.598;2023-07-09T12:44:21;33.00;49.40
16513;DHT22;8369;48.030;11.598;2023-07-09T12:46:49;33.00;50.00
16513;DHT22;8369;48.030;11.598;2023-07-09T12:49:47;33.00;50.10
16513;DHT22;8369;48.030;11.598;2023-07-09T12:52:29;33.00;50.10
16513;DHT22;8369;48.030;11.598;2023-07-09T12:55:22;33.00;48.80
16513;DHT22;8369;48.030;11.598;2023-07-09T12:57:54;33.00;50.00
16513;DHT22;8369;48.030;11.598;2023-07-09T13:00:21;32.90;50.10
16513;DHT22;8369;48.030;11.598;2023-07-09T13:02:53;32.70;50.30
16513;DHT22;8369;48.030;11.598;2023-07-09T13:05:22;32.60;50.70
16513;DHT22;8369;48.030;11.598;2023-07-09T13:07:54;32.40;50.40
16513;DHT22;8369;48.030;11.598;2023-07-09T13:10:26;32.40;50.60
16513;DHT22;8369;48.030;11.598;2023-07-09T13:12:55;32.40;50.70
16513;DHT22;8369;48.030;11.598;2023-07-09T13:15:39;32.30;51.50
16513;DHT22;8369;48.030;11.598;2023-07-09T13:18:09;32.30;52.40
16513;DHT22;8369;48.030;11.598;2023-07-09T13:20:39;32.30;51.50
16513;DHT22;8369;48.030;11.598;2023-07-09T13:23:15;32.30;51.40
16513;DHT22;8369;48.030;11.598;2023-07-09T13:25:41;32.40;50.70
16513;DHT22;8369;48.030;11.598;2023-07-09T13:28:30;32.60;50.80
16513;DHT22;8369;48.030;11.598;2023-07-09T13:31:14;32.60;50.40
16513;DHT22;8369;48.030;11.598;2023-07-09T13:36:15;32.70;50.10
16513;DHT22;8369;48.030;11.598;2023-07-09T13:38:41;32.80;49.80
16513;DHT22;8369;48.030;11.598;2023-07-09T13:41:12;32.90;49.70
16513;DHT22;8369;48.030;11.598;2023-07-09T13:43:43;33.00;49.30
16513;DHT22;8369;48.030;11.598;2023-07-09T13:46:12;33.10;48.80
16513;DHT22;8369;48.030;11.598;2023-07-09T13:48:40;33.10;48.70
16513;DHT22;8369;48.030;11.598;2023-07-09T13:53:41;33.20;49.80
16513;DHT22;8369;48.030;11.598;2023-07-09T13:56:07;33.20;50.30
16513;DHT22;8369;48.030;11.598;2023-07-09T13:58:33;33.20;50.30
16513;DHT22;8369;48.030;11.598;2023-07-09T14:01:08;33.20;49.80
16513;DHT22;8369;48.030;11.598;2023-07-09T14:03:37;33.20;50.30
16513;DHT22;8369;48.030;11.598;2023-07-09T14:06:11;33.30;50.70
16513;DHT22;8369;48.030;11.598;2023-07-09T14:08:40;33.30;49.40
16513;DHT22;8369;48.030;11.598;2023-07-09T14:11:14;33.30;49.80
16513;DHT22;8369;48.030;11.598;2023-07-09T14:13:41;33.30;50.10
16513;DHT22;8369;48.030;11.598;2023-07-09T14:16:13;33.30;49.60
16513;DHT22;8369;48.030;11.598;2023-07-09T14:18:42;33.30;49.00
16513;DHT22;8369;48.030;11.598;2023-07-09T14:21:18;33.20;48.00
16513;DHT22;8369;48.030;11.598;2023-07-09T14:23:46;33.10;48.30
16513;DHT22;8369;48.030;11.598;2023-07-09T14:26:14;33.00;48.60
16513;DHT22;8369;48.030;11.598;2023-07-09T14:28:40;33.00;49.00
16513;DHT22;8369;48.030;11.598;2023-07-09T14:31:28;33.00;48.80
16513;DHT22;8369;48.030;11.598;2023-07-09T14:36:39;32.90;48.80
16513;DHT22;8369;48.030;11.598;2023-07-09T14:39:12;32.90;49.00
16513;DHT22;8369;48.030;11.598;2023-07-09T14:41:38;32.90;48.80
16513;DHT22;8369;48.030;11.598;2023-07-09T14:44:25;32.80;49.00
16513;DHT22;8369;48.030;11.598;2023-07-09T14:46:52;32.80;49.10
16513;DHT22;8369;48.030;11.598;2023-07-09T14:49:18;32.80;49.70
16513;DHT22;8369;48.030;11.598;2023-07-09T14:51:47;32.70;50.10
16513;DHT22;8369;48.030;11.598;2023-07-09T14:54:30;32.80;50.10
16513;DHT22;8369;48.030;11.598;2023-07-09T14:57:32;32.80;50.40
16513;DHT22;8369;48.030;11.598;2023-07-09T15:00:17;32.80;50.60
16513;DHT22;8369;48.030;11.598;2023-07-09T15:02:44;32.80;50.30
16513;DHT22;8369;48.030;11.598;2023-07-09T15:05:20;32.80;50.40
16513;DHT22;8369;48.030;11.598;2023-07-09T15:07:46;32.80;50.40
16513;DHT22;8369;48.030;11.598;2023-07-09T15:10:24;32.70;50.60
16513;DHT22;8369;48.030;11.598;2023-07-09T15:12:56;32.70;50.30
16513;DHT22;8369;48.030;11.598;2023-07-09T15:15:31;32.70;50.10
16513;DHT22;8369;48.030;11.598;2023-07-09T15:18:00;32.70;50.00
16513;DHT22;8369;48.030;11.598;2023-07-09T15:20:30;32.60;49.70
16513;DHT22;8369;48.030;11.598;2023-07-09T15:23:20;32.60;50.40
16513;DHT22;8369;48.030;11.598;2023-07-09T15:25:51;32.60;50.70
16513;DHT22;8369;48.030;11.598;2023-07-09T15:28:44;32.60;50.70
16513;DHT22;8369;48.030;11.598;2023-07-09T15:31:17;32.50;51.40
16513;DHT22;8369;48.030;11.598;2023-07-09T15:33:56;32.50;51.50
16513;DHT22;8369;48.030;11.598;2023-07-09T15:36:25;32.40;51.00
16513;DHT22;8369;48.030;11.598;2023-07-09T15:38:51;32.40;51.70
16513;DHT22;8369;48.030;11.598;2023-07-09T15:41:17;32.40;52.00
16513;DHT22;8369;48.030;11.598;2023-07-09T15:43:43;32.30;51.80
16513;DHT22;8369;48.030;11.598;2023-07-09T15:46:18;32.20;51.80
16513;DHT22;8369;48.030;11.598;2023-07-09T15:48:45;32.20;51.40
16513;DHT22;8369;48.030;11.598;2023-07-09T15:51:14;32.20;51.80
16513;DHT22;8369;48.030;11.598;2023-07-09T15:53:40;32.10;52.40
16513;DHT22;8369;48.030;11.598;2023-07-09T15:56:21;32.10;52.70
16513;DHT22;8369;48.030;11.598;2023-07-09T15:58:50;32.10;52.40
16513;DHT22;8369;48.030;11.598;2023-07-09T16:01:24;32.00;52.50
16513;DHT22;8369;48.030;11.598;2023-07-09T16:04:02;32.00;52.80
16513;DHT22;8369;48.030;11.598;2023-07-09T16:06:42;31.90;53.50
16513;DHT22;8369;48.030;11.598;2023-07-09T16:09:08;31.90;53.70
16513;DHT22;8369;48.030;11.598;2023-07-09T16:11:34;31.80;53.50
16513;DHT22;8369;48.030;11.598;2023-07-09T16:14:30;31.80;53.00
16513;DHT22;8369;48.030;11.598;2023-07-09T16:16:56;31.70;52.80
16513;DHT22;8369;48.030;11.598;2023-07-09T16:19:24;31.70;53.00
16513;DHT22;8369;48.030;11.598;2023-07-09T16:21:59;31.60;52.80
16513;DHT22;8369;48.030;11.598;2023-07-09T16:24:28;31.50;52.40
16513;DHT22;8369;48.030;11.598;2023-07-09T16:26:58;31.50;53.10
16513;DHT22;8369;48.030;11.598;2023-07-09T16:29:34;31.40;53.50
16513;DHT22;8369;48.030;11.598;2023-07-09T16:32:00;31.30;54.40
16513;DHT22;8369;48.030;11.598;2023-07-09T16:34:28;31.30;54.40
16513;DHT22;8369;48.030;11.598;2023-07-09T16:36:55;31.20;54.70
16513;DHT22;8369;48.030;11.598;2023-07-09T16:39:27;31.20;54.20
16513;DHT22;8369;48.030;11.598;2023-07-09T16:41:54;31.10;54.20
16513;DHT22;8369;48.030;11.598;2023-07-09T16:44:20;31.00;54.50
16513;DHT22;8369;48.030;11.598;2023-07-09T16:46:48;31.00;54.50
16513;DHT22;8369;48.030;11.598;2023-07-09T16:51:48;31.00;55.40
16513;DHT22;8369;48.030;11.598;2023-07-09T16:54:14;31.00;55.80
16513;DHT22;8369;48.030;11.598;2023-07-09T16:56:40;31.00;55.50
16513;DHT22;8369;48.030;11.598;2023-07-09T16:59:09;30.90;55.50